Time;durP1;ratioP1;P1;durP2;ratioP2;P2;SDS_P1;SDS_P2;PMS_P1;PMS_P2;Temp;Humidity;BMP_temperature;BMP_pressure;BME280_temperature;BME280_humidity;BME280_pressure;Samples;Min_cycle;Max_cycle;Signal;HPM_P1;HPM_P2
2022/02/04 00:20:17;;;;;;;0.00;0.00;;;;;;;3.37;57.11;99437.28;6149148;23;20505;-78
2022/02/04 00:22:57;;;;;;;0.10;0.10;;;;;;;3.39;56.97;99442.34;6148643;23;20013;-78
2022/02/04 00:26:14;;;;;;;0.00;0.00;;;;;;;3.39;57.08;99447.63;6147855;23;20085;-76
2022/02/04 00:28:26;;;;;;;0.00;0.00;;;;;;;3.33;56.87;99452.78;6132958;23;20002;-78
2022/02/04 00:31:12;;;;;;;0.00;0.00;;;;;;;3.30;56.67;99455.84;6148292;23;20092;-79
2022/02/04 00:33:41;;;;;;;0.00;0.00;;;;;;;3.28;56.89;99449.16;6149784;23;20037;-76
2022/02/04 00:36:13;;;;;;;0.00;0.00;;;;;;;3.28;56.51;99451.78;6148015;23;20014;-79
2022/02/04 00:38:43;;;;;;;0.00;0.00;;;;;;;3.22;56.83;99450.81;6148763;23;20006;-80
2022/02/04 00:41:11;;;;;;;0.00;0.00;;;;;;;3.23;57.09;99455.09;6147412;23;20005;-77
2022/02/04 00:43:38;;;;;;;0.00;0.00;;;;;;;3.23;57.06;99464.88;6147929;23;20044;-79
2022/02/04 00:52:08;;;;;;;0.00;0.00;;;;;;;3.21;57.07;99459.81;6149585;23;20005;-80
2022/02/04 01:27:29;;;;;;;0.00;0.00;;;;;;;2.98;55.76;99449.81;6150028;23;20084;-78
2022/02/04 01:30:15;;;;;;;0.45;0.45;;;;;;;2.96;56.56;99450.03;6149147;23;20025;-78
2022/02/04 01:32:41;;;;;;;0.00;0.00;;;;;;;2.94;55.91;99453.91;6149654;22;20346;-78
2022/02/04 01:35:07;;;;;;;0.00;0.00;;;;;;;2.93;56.11;99455.75;6148834;23;20005;-78
2022/02/04 01:37:32;;;;;;;0.00;0.00;;;;;;;2.95;56.63;99458.19;6148393;23;20041;-78
2022/02/04 01:39:57;;;;;;;0.00;0.00;;;;;;;2.95;56.06;99447.59;6149047;23;20006;-79
2022/02/04 01:42:23;;;;;;;0.00;0.00;;;;;;;2.96;56.12;99457.16;6148866;23;20006;-79
2022/02/04 01:44:48;;;;;;;0.00;0.00;;;;;;;2.94;56.10;99452.09;6149089;23;20063;-78
2022/02/04 01:47:14;;;;;;;0.00;0.00;;;;;;;2.98;55.77;99450.63;6148456;23;20472;-78
2022/02/04 01:49:39;;;;;;;0.00;0.00;;;;;;;2.98;55.58;99461.19;6148254;23;20063;-79
2022/02/04 01:52:05;;;;;;;1.17;0.55;;;;;;;2.92;55.56;99443.56;6148866;23;20018;-80
2022/02/04 01:54:31;;;;;;;0.20;0.20;;;;;;;2.97;55.49;99451.66;6148435;23;20013;-79
2022/02/04 01:56:56;;;;;;;2.92;0.98;;;;;;;2.94;55.20;99446.81;6148398;23;20012;-78
2022/02/04 01:59:21;;;;;;;0.00;0.00;;;;;;;2.97;55.21;99454.28;6148098;23;20081;-77
2022/02/04 02:01:47;;;;;;;0.00;0.00;;;;;;;2.97;55.45;99456.94;6149914;23;20015;-79
2022/02/04 02:04:14;;;;;;;0.10;0.10;;;;;;;3.00;55.08;99467.09;6148597;23;20347;-79
2022/02/04 02:06:53;;;;;;;0.00;0.00;;;;;;;2.99;55.07;99464.63;6149184;23;20021;-79
2022/02/04 02:09:24;;;;;;;0.00;0.00;;;;;;;3.00;55.07;99476.81;6150581;23;20434;-79
2022/02/04 02:11:54;;;;;;;0.20;0.20;;;;;;;3.01;55.28;99466.03;6148856;23;20001;-79
2022/02/04 02:14:22;;;;;;;0.00;0.00;;;;;;;3.01;54.85;99468.69;6148665;23;20014;-79
2022/02/04 02:33:11;;;;;;;0.17;0.17;;;;;;;3.04;54.25;99467.47;6148116;23;20012;-78
2022/02/04 02:37:24;;;;;;;0.00;0.00;;;;;;;2.88;54.33;99482.00;6149699;23;20009;-81
2022/02/04 02:46:36;;;;;;;0.00;0.00;;;;;;;2.76;54.36;99473.97;6125729;23;20133;-81
2022/02/04 02:59:10;;;;;;;0.00;0.00;;;;;;;2.65;55.02;99482.56;6152065;23;20041;-79
2022/02/04 03:01:36;;;;;;;0.00;0.00;;;;;;;2.61;54.94;99482.16;6151786;23;20002;-81
2022/02/04 03:04:14;;;;;;;0.00;0.00;;;;;;;2.61;54.92;99482.16;6164389;23;20012;-83
2022/02/04 03:09:18;;;;;;;0.00;0.00;;;;;;;2.53;55.04;99479.81;6246823;23;20020;-80
2022/02/04 03:28:53;;;;;;;0.00;0.00;;;;;;;2.53;54.79;99485.88;6159227;22;20018;-81
2022/02/04 03:46:06;;;;;;;1.77;1.20;;;;;;;2.56;54.55;99493.38;6165328;22;20078;-81
2022/02/04 04:25:17;;;;;;;0.00;0.00;;;;;;;2.36;54.74;99511.16;6149030;22;20033;-79
2022/02/04 04:27:44;;;;;;;0.00;0.00;;;;;;;2.35;54.61;99520.88;6123921;23;20018;-78
2022/02/04 04:30:11;;;;;;;0.00;0.00;;;;;;;2.34;54.76;99516.63;6123186;23;20004;-80
2022/02/04 04:32:37;;;;;;;0.43;0.43;;;;;;;2.31;54.69;99516.25;6122644;23;20033;-78
2022/02/04 04:35:47;;;;;;;0.00;0.00;;;;;;;2.31;54.65;99518.91;6130760;23;20014;-83
2022/02/04 04:42:19;;;;;;;0.00;0.00;;;;;;;2.23;54.29;99519.94;6143661;22;20548;-82
2022/02/04 05:30:29;;;;;;;0.10;0.10;;;;;;;2.13;54.15;99553.88;6159496;23;20070;-82
2022/02/04 05:32:55;;;;;;;0.00;0.00;;;;;;;2.12;54.00;99553.06;6124045;23;20088;-80
2022/02/04 05:41:48;;;;;;;;;;;;;;;2.29;55.24;99550.75;6150830;22;20032;-80
2022/02/04 05:44:26;;;;;;;0.00;0.00;;;;;;;2.33;55.50;99541.44;6125778;23;20396;-81
2022/02/04 05:47:37;;;;;;;0.00;0.00;;;;;;;2.41;55.00;99545.66;6125605;23;20335;-80
2022/02/04 06:22:23;;;;;;;0.00;0.00;;;;;;;3.81;50.70;99549.13;6122095;23;20053;-78
2022/02/04 06:24:50;;;;;;;0.00;0.00;;;;;;;3.89;50.33;99541.94;6099990;23;20010;-78
2022/02/04 06:27:26;;;;;;;0.00;0.00;;;;;;;4.00;50.99;99549.16;6102604;23;20015;-83
2022/02/04 06:29:54;;;;;;;0.05;0.05;;;;;;;4.08;50.47;99548.06;6044425;23;20010;-79
2022/02/04 06:32:20;;;;;;;0.00;0.00;;;;;;;4.07;49.70;99549.88;6039290;23;20006;-78
2022/02/04 06:34:47;;;;;;;0.10;0.10;;;;;;;4.18;50.23;99550.19;6085273;23;20014;-79
2022/02/04 06:37:13;;;;;;;0.00;0.00;;;;;;;4.28;49.69;99550.47;6096768;23;20032;-81
2022/02/04 06:39:39;;;;;;;0.13;0.13;;;;;;;4.41;50.05;99550.31;6099756;23;20006;-81
2022/02/04 06:42:05;;;;;;;0.00;0.00;;;;;;;4.58;49.82;99562.94;6120130;23;20374;-77
2022/02/04 06:44:30;;;;;;;0.00;0.00;;;;;;;4.69;49.26;99561.38;6120852;23;20006;-79
2022/02/04 06:47:01;;;;;;;0.00;0.00;;;;;;;4.78;48.73;99562.69;6095324;23;20014;-80
2022/02/04 06:49:27;;;;;;;0.00;0.00;;;;;;;4.87;49.11;99569.28;6109100;23;20002;-79
2022/02/04 06:51:54;;;;;;;0.00;0.00;;;;;;;4.92;48.63;99569.41;6120977;23;20063;-79
2022/02/04 06:54:20;;;;;;;0.00;0.00;;;;;;;4.97;48.79;99569.53;6094428;23;20033;-78
2022/02/04 06:56:45;;;;;;;0.00;0.00;;;;;;;4.99;48.45;99571.16;6119610;23;20450;-78
2022/02/04 06:59:11;;;;;;;0.00;0.00;;;;;;;5.03;49.14;99574.97;6120111;23;20073;-78
2022/02/04 07:01:37;;;;;;;0.00;0.00;;;;;;;5.06;48.94;99582.47;6093918;23;20081;-78
2022/02/04 07:04:04;;;;;;;1.52;1.45;;;;;;;5.03;48.66;99581.09;6093896;23;20013;-78
2022/02/04 07:06:34;;;;;;;0.00;0.00;;;;;;;5.02;48.55;99587.44;6120090;23;20036;-77
2022/02/04 07:22:34;;;;;;;0.00;0.00;;;;;;;4.79;49.21;99586.28;6149206;23;20001;-79
2022/02/04 07:25:07;;;;;;;0.00;0.00;;;;;;;4.79;49.33;99582.84;6151536;23;20021;-75
2022/02/04 07:27:34;;;;;;;0.00;0.00;;;;;;;4.82;48.60;99592.97;6148680;23;19994;-75
2022/02/04 07:30:01;;;;;;;0.00;0.00;;;;;;;4.80;48.33;99589.78;6148970;23;20001;-74
2022/02/04 07:32:36;;;;;;;0.52;0.52;;;;;;;4.84;48.94;99582.97;6149404;23;19997;-78
2022/02/04 07:43:06;;;;;;;0.00;0.00;;;;;;;4.97;48.01;99589.94;6148421;23;20012;-76
2022/02/04 07:45:34;;;;;;;0.03;0.03;;;;;;;5.00;47.63;99592.13;6148168;23;20006;-74
2022/02/04 07:48:01;;;;;;;0.13;0.13;;;;;;;5.06;47.83;99593.09;6148845;23;20203;-75
2022/02/04 07:50:27;;;;;;;0.10;0.10;;;;;;;5.16;47.24;99601.28;6149320;23;20005;-77
2022/02/04 07:52:54;;;;;;;0.00;0.00;;;;;;;5.26;47.36;99603.38;6149019;23;20450;-74
2022/02/04 07:55:21;;;;;;;0.00;0.00;;;;;;;5.34;47.55;99589.81;6148816;23;20012;-75
2022/02/04 07:57:48;;;;;;;0.00;0.00;;;;;;;5.39;47.67;99594.44;6148390;23;20065;-74
2022/02/04 08:00:16;;;;;;;0.00;0.00;;;;;;;5.41;47.59;99593.16;6148563;23;20005;-74
2022/02/04 08:02:43;;;;;;;0.00;0.00;;;;;;;5.43;47.70;99593.75;6148827;23;20005;-74
2022/02/04 08:05:12;;;;;;;0.80;0.75;;;;;;;5.55;47.82;99587.66;6148808;23;20001;-74
2022/02/04 08:07:47;;;;;;;;;;;;;;;5.61;47.51;99589.38;6148996;23;20033;-76
2022/02/04 08:15:44;;;;;;;0.03;0.03;;;;;;;5.70;46.39;99592.50;6148711;23;20014;-74
2022/02/04 08:26:09;;;;;;;0.00;0.00;;;;;;;6.04;47.33;99588.28;6150514;23;20073;-78
2022/02/04 08:54:34;;;;;;;0.75;0.75;;;;;;;6.48;45.53;99585.19;6151133;23;20012;-77
2022/02/04 08:57:07;;;;;;;0.00;0.00;;;;;;;6.51;45.34;99578.59;6151510;23;20021;-77
2022/02/04 08:59:48;;;;;;;0.00;0.00;;;;;;;6.52;44.61;99575.69;6125324;23;20005;-78
2022/02/04 09:02:29;;;;;;;0.00;0.00;;;;;;;6.55;44.61;99575.25;6125182;23;20036;-78
2022/02/04 09:04:56;;;;;;;0.00;0.00;;;;;;;6.62;45.88;99574.28;6125653;23;20021;-78
2022/02/04 09:07:25;;;;;;;0.20;0.20;;;;;;;6.66;45.37;99570.91;6152240;23;20450;-77
2022/02/04 09:10:00;;;;;;;0.00;0.00;;;;;;;6.72;44.47;99572.59;6149098;23;20139;-77
2022/02/04 09:20:31;;;;;;;0.00;0.00;;;;;;;6.80;42.88;99571.44;6150846;23;20450;-78
2022/02/04 09:22:57;;;;;;;0.00;0.00;;;;;;;6.83;42.80;99559.53;6123613;23;20017;-75
2022/02/04 09:25:24;;;;;;;0.00;0.00;;;;;;;6.84;44.52;99567.25;6149856;23;20066;-76
2022/02/04 09:27:50;;;;;;;0.10;0.10;;;;;;;6.78;44.45;99556.78;6149226;23;20031;-76
2022/02/04 09:30:17;;;;;;;0.00;0.00;;;;;;;6.71;45.40;99552.41;6149808;23;20033;-76
2022/02/04 09:32:43;;;;;;;0.00;0.00;;;;;;;6.67;44.99;99550.47;6149681;23;20020;-76
2022/02/04 09:35:11;;;;;;;0.00;0.00;;;;;;;6.52;45.23;99554.44;6150854;23;20006;-79
2022/02/04 09:37:37;;;;;;;0.00;0.00;;;;;;;6.39;45.37;99557.38;6123943;23;20016;-76
2022/02/04 09:40:05;;;;;;;0.70;0.70;;;;;;;6.19;46.15;99555.09;6150003;23;20080;-77
2022/02/04 09:42:30;;;;;;;0.00;0.00;;;;;;;6.02;46.84;99555.03;6149425;23;20430;-77
2022/02/04 09:44:56;;;;;;;0.40;0.40;;;;;;;5.87;47.53;99548.31;6123233;22;20009;-77
2022/02/04 09:47:24;;;;;;;0.00;0.00;;;;;;;5.82;48.79;99547.38;6123044;23;20014;-77
2022/02/04 09:49:56;;;;;;;6.63;1.95;;;;;;;5.69;47.64;99551.06;6123386;23;20006;-77
2022/02/04 10:17:23;;;;;;;0.00;0.00;;;;;;;5.68;48.88;99536.22;6149398;23;20338;-75
2022/02/04 10:19:49;;;;;;;0.00;0.00;;;;;;;5.69;48.84;99533.31;6149191;23;20027;-75
2022/02/04 10:22:24;;;;;;;0.20;0.20;;;;;;;5.75;49.42;99539.56;6123506;23;20437;-76
2022/02/04 10:24:55;;;;;;;0.00;0.00;;;;;;;5.83;48.66;99547.16;6148926;23;20005;-77
2022/02/04 10:27:22;;;;;;;0.25;0.25;;;;;;;5.91;49.24;99543.34;6149676;23;20357;-75
2022/02/04 10:30:01;;;;;;;0.00;0.00;;;;;;;5.92;48.39;99544.97;6149351;23;20001;-73
2022/02/04 10:32:32;;;;;;;0.22;0.22;;;;;;;6.00;48.52;99541.97;6149306;23;20080;-76
2022/02/04 10:35:09;;;;;;;0.00;0.00;;;;;;;6.11;46.80;99531.56;6149188;23;20055;-75
2022/02/04 10:37:41;;;;;;;0.00;0.00;;;;;;;6.24;45.54;99541.94;6149512;23;20327;-75
2022/02/04 10:40:29;;;;;;;0.90;0.90;;;;;;;6.33;45.83;99527.22;6149563;23;20006;-79
2022/02/04 10:46:28;;;;;;;0.00;0.00;;;;;;;6.43;46.31;99523.97;6149468;23;19993;-77
2022/02/04 11:07:37;;;;;;;0.00;0.00;;;;;;;7.15;42.57;99495.16;6147245;23;20396;-77
2022/02/04 11:10:38;;;;;;;0.00;0.00;;;;;;;7.21;41.35;99494.19;6122980;23;20092;-78
2022/02/04 11:33:11;;;;;;;0.00;0.00;;;;;;;7.59;39.35;99466.03;6001805;23;20023;-78
2022/02/04 11:52:05;;;;;;;0.00;0.00;;;;;;;7.63;39.21;99445.84;6148705;23;20009;-77
2022/02/04 11:54:40;;;;;;;0.00;0.00;;;;;;;7.67;39.42;99446.94;6149345;23;20013;-77
2022/02/04 11:57:06;;;;;;;0.00;0.00;;;;;;;7.74;39.99;99448.63;6148606;23;20008;-77
2022/02/04 11:59:43;;;;;;;0.00;0.00;;;;;;;7.70;40.25;99440.31;6122570;23;20453;-77
2022/02/04 12:02:34;;;;;;;0.00;0.00;;;;;;;7.80;40.31;99426.31;6123112;23;20155;-77
2022/02/04 12:07:40;;;;;;;0.00;0.00;;;;;;;7.90;41.22;99437.13;6149166;23;20036;-76
2022/02/04 12:10:31;;;;;;;0.00;0.00;;;;;;;7.96;41.03;99430.78;6148752;23;20059;-76
2022/02/04 12:15:30;;;;;;;0.00;0.00;;;;;;;8.06;40.21;99434.63;6148494;23;20101;-77
2022/02/04 12:17:57;;;;;;;0.00;0.00;;;;;;;8.05;41.05;99431.16;6148703;23;20385;-77
2022/02/04 12:20:44;;;;;;;0.00;0.00;;;;;;;8.12;41.00;99439.75;6148620;23;20063;-77
2022/02/04 12:23:32;;;;;;;0.00;0.00;;;;;;;8.05;40.07;99425.81;6148732;23;20000;-77
2022/02/04 12:26:17;;;;;;;0.00;0.00;;;;;;;8.05;40.53;99420.50;6148284;23;20006;-77
2022/02/04 12:28:52;;;;;;;0.65;0.52;;;;;;;8.09;40.73;99421.63;6149014;23;20005;-77
2022/02/04 12:31:24;;;;;;;0.03;0.03;;;;;;;8.14;40.82;99423.50;6148939;23;20350;-78
2022/02/04 12:33:53;;;;;;;0.00;0.00;;;;;;;8.17;40.40;99418.50;6148371;23;20010;-77
2022/02/04 12:36:27;;;;;;;;;;;;;;;8.25;40.43;99417.25;6148682;23;20123;-77
2022/02/04 12:38:58;;;;;;;0.00;0.00;;;;;;;8.24;39.76;99410.31;6148601;23;19940;-78
2022/02/04 12:41:36;;;;;;;0.00;0.00;;;;;;;8.31;39.93;99407.44;6148454;23;20072;-77
2022/02/04 12:44:05;;;;;;;0.00;0.00;;;;;;;8.36;40.25;99404.03;6122399;23;20013;-77
2022/02/04 12:46:32;;;;;;;0.00;0.00;;;;;;;8.39;39.19;99409.66;6122689;23;20019;-77
2022/02/04 12:49:05;;;;;;;0.00;0.00;;;;;;;8.38;39.91;99401.91;6122123;23;20010;-78
2022/02/04 12:54:29;;;;;;;0.00;0.00;;;;;;;8.44;40.49;99393.69;6148334;23;20385;-77
2022/02/04 12:57:29;;;;;;;0.00;0.00;;;;;;;8.46;40.03;99399.63;6147850;23;20393;-77
2022/02/04 13:08:24;;;;;;;0.00;0.00;;;;;;;8.37;39.38;99381.66;6148263;23;20021;-76
2022/02/04 13:10:58;;;;;;;0.00;0.00;;;;;;;8.37;39.73;99374.44;6148875;23;20423;-77
2022/02/04 13:13:24;;;;;;;0.00;0.00;;;;;;;8.38;40.14;99369.94;6149900;23;20008;-77
2022/02/04 13:15:51;;;;;;;0.00;0.00;;;;;;;8.38;39.94;99364.59;6149831;23;20025;-77
2022/02/04 13:18:17;;;;;;;0.00;0.00;;;;;;;8.39;40.66;99374.22;6149800;23;20009;-77
2022/02/04 13:20:45;;;;;;;0.00;0.00;;;;;;;8.39;40.67;99361.69;6149877;23;20006;-77
2022/02/04 13:23:15;;;;;;;0.00;0.00;;;;;;;8.46;40.38;99362.31;6123538;23;20435;-78
2022/02/04 13:26:01;;;;;;;0.00;0.00;;;;;;;8.48;39.74;99362.88;6123391;23;20023;-77
2022/02/04 13:28:33;;;;;;;1.25;1.15;;;;;;;8.48;39.03;99349.53;6149560;23;20450;-76
2022/02/04 13:31:04;;;;;;;0.00;0.00;;;;;;;8.52;39.18;99357.84;6149305;23;20054;-76
2022/02/04 13:33:42;;;;;;;0.00;0.00;;;;;;;8.49;38.89;99361.81;6149599;23;20455;-76
2022/02/04 13:36:32;;;;;;;0.00;0.00;;;;;;;8.49;38.58;99369.00;6149596;23;20012;-76
2022/02/04 13:39:13;;;;;;;0.00;0.00;;;;;;;8.48;38.53;99364.72;6149593;23;20036;-76
2022/02/04 13:44:39;;;;;;;0.00;0.00;;;;;;;8.44;38.99;99380.38;6149525;23;20002;-76
2022/02/04 13:50:04;;;;;;;0.00;0.00;;;;;;;8.38;39.40;99360.06;6149833;23;20055;-76
2022/02/04 13:57:50;;;;;;;0.10;0.10;;;;;;;8.31;39.38;99367.47;6149593;23;20028;-76
2022/02/04 14:00:43;;;;;;;0.20;0.20;;;;;;;8.33;39.00;99368.03;6123861;23;20370;-77
2022/02/04 14:03:16;;;;;;;0.00;0.00;;;;;;;8.26;38.79;99356.78;6149579;23;20148;-76
2022/02/04 14:05:50;;;;;;;0.00;0.00;;;;;;;8.27;38.84;99361.03;6149736;23;20005;-77
2022/02/04 14:08:20;;;;;;;0.00;0.00;;;;;;;8.27;39.58;99358.38;6149665;23;20013;-77
2022/02/04 14:10:50;;;;;;;0.10;0.10;;;;;;;8.29;39.58;99358.94;6149691;23;20005;-76
2022/02/04 14:13:21;;;;;;;0.00;0.00;;;;;;;8.31;38.93;99364.78;6149455;23;20006;-78
2022/02/04 14:15:52;;;;;;;0.00;0.00;;;;;;;8.28;38.45;99365.31;6149063;23;20024;-77
2022/02/04 14:18:18;;;;;;;0.03;0.03;;;;;;;8.24;38.85;99365.03;6149699;23;20063;-77
2022/02/04 14:20:44;;;;;;;0.00;0.00;;;;;;;8.22;38.90;99371.66;6123643;23;20385;-77
2022/02/04 14:23:11;;;;;;;0.00;0.00;;;;;;;8.16;38.95;99374.25;6149003;23;20005;-77
2022/02/04 14:26:02;;;;;;;0.00;0.00;;;;;;;8.07;38.99;99356.31;6149605;23;20001;-77
2022/02/04 14:50:09;;;;;;;0.00;0.00;;;;;;;7.98;38.94;99350.63;6151583;23;20028;-79
2022/02/04 15:00:41;;;;;;;0.00;0.00;;;;;;;7.78;39.48;99343.25;6149541;23;20031;-77
2022/02/04 15:05:42;;;;;;;0.10;0.10;;;;;;;7.65;39.51;99341.78;6149731;23;20546;-77
2022/02/04 15:08:10;;;;;;;0.30;0.30;;;;;;;7.57;40.06;99348.34;6149414;23;20013;-79
2022/02/04 15:10:38;;;;;;;0.25;0.25;;;;;;;7.57;40.10;99356.34;6123193;23;20340;-77
2022/02/04 15:13:10;;;;;;;0.00;0.00;;;;;;;7.54;40.04;99348.81;6122848;23;20400;-77
2022/02/04 15:15:36;;;;;;;0.00;0.00;;;;;;;7.50;40.39;99342.41;6148606;23;20028;-77
2022/02/04 15:18:01;;;;;;;0.00;0.00;;;;;;;7.46;40.46;99339.44;6149012;23;20041;-77
2022/02/04 15:20:26;;;;;;;0.00;0.00;;;;;;;7.44;40.37;99335.41;6149197;23;20016;-77
2022/02/04 15:22:52;;;;;;;0.00;0.00;;;;;;;7.38;40.79;99326.56;6148972;23;20009;-77
2022/02/04 15:25:21;;;;;;;0.17;0.17;;;;;;;7.35;40.87;99314.56;6149057;23;20398;-77
2022/02/04 15:30:36;;;;;;;0.00;0.00;;;;;;;7.28;41.12;99337.09;6089241;23;20006;-78
2022/02/04 15:33:01;;;;;;;0.00;0.00;;;;;;;7.24;41.00;99330.63;6149756;23;20002;-77
2022/02/04 15:35:29;;;;;;;0.00;0.00;;;;;;;7.16;40.97;99326.56;6148325;23;20012;-78
2022/02/04 15:37:55;;;;;;;0.00;0.00;;;;;;;7.12;41.51;99326.25;6122506;23;20001;-76
2022/02/04 15:40:20;;;;;;;0.00;0.00;;;;;;;7.15;42.01;99330.25;6123209;23;20040;-76
2022/02/04 15:42:54;;;;;;;0.00;0.00;;;;;;;7.13;41.45;99335.84;6148751;23;20059;-77
2022/02/04 15:48:17;;;;;;;0.00;0.00;;;;;;;7.08;41.95;99334.94;6149054;23;20381;-78
2022/02/04 16:06:15;;;;;;;0.20;0.20;;;;;;;6.85;42.95;99318.16;6148223;23;20001;-77
2022/02/04 16:08:41;;;;;;;0.00;0.00;;;;;;;6.84;42.77;99320.00;6148039;23;20015;-77
2022/02/04 16:13:56;;;;;;;0.00;0.00;;;;;;;6.78;43.56;99323.63;6148594;23;20378;-75
2022/02/04 16:16:27;;;;;;;0.00;0.00;;;;;;;6.73;43.34;99319.06;6148672;23;20419;-75
2022/02/04 16:24:22;;;;;;;0.00;0.00;;;;;;;6.68;43.35;99326.94;6148186;23;20105;-75
2022/02/04 16:26:54;;;;;;;0.65;0.63;;;;;;;6.64;42.85;99322.38;6122748;23;20014;-76
2022/02/04 16:29:20;;;;;;;0.00;0.00;;;;;;;6.59;43.08;99319.63;6148208;23;20376;-76
2022/02/04 16:31:46;;;;;;;0.00;0.00;;;;;;;6.59;43.08;99322.28;6122701;23;20492;-76
2022/02/04 16:34:12;;;;;;;0.63;0.63;;;;;;;6.54;43.02;99317.69;6148299;23;20080;-76
2022/02/04 16:36:42;;;;;;;0.08;0.08;;;;;;;6.50;43.22;99321.91;6122239;23;20012;-76
2022/02/04 16:39:10;;;;;;;0.00;0.00;;;;;;;6.48;43.30;99318.66;6148030;23;19998;-76
2022/02/04 16:42:02;;;;;;;0.00;0.00;;;;;;;6.46;43.47;99320.75;6148232;23;20002;-74
2022/02/04 16:44:30;;;;;;;0.00;0.00;;;;;;;6.41;43.98;99318.84;6122254;23;20017;-75
2022/02/04 16:46:56;;;;;;;0.00;0.00;;;;;;;6.40;43.44;99318.03;6149723;23;20071;-77
2022/02/04 16:49:23;;;;;;;0.00;0.00;;;;;;;6.38;43.75;99316.66;6123321;23;20009;-79
2022/02/04 16:51:49;;;;;;;0.00;0.00;;;;;;;6.35;43.80;99317.16;6123540;23;20002;-80
2022/02/04 16:54:18;;;;;;;0.10;0.10;;;;;;;6.32;44.18;99322.94;6123504;23;20005;-81
2022/02/04 16:57:00;;;;;;;0.00;0.00;;;;;;;6.30;44.20;99330.31;6124317;23;20363;-81
2022/02/04 16:59:26;;;;;;;0.00;0.00;;;;;;;6.30;44.43;99330.31;6123101;23;20085;-78
2022/02/04 17:01:53;;;;;;;0.00;0.00;;;;;;;6.28;44.51;99335.09;6123359;23;20028;-78
2022/02/04 17:04:19;;;;;;;0.00;0.00;;;;;;;6.24;44.25;99322.28;6122723;23;20498;-78
2022/02/04 17:06:48;;;;;;;0.00;0.00;;;;;;;6.22;44.17;99320.91;6123203;23;20040;-77
2022/02/04 17:11:44;;;;;;;0.00;0.00;;;;;;;6.14;43.65;99329.28;6149711;23;20044;-78
2022/02/04 17:14:10;;;;;;;0.00;0.00;;;;;;;6.08;44.08;99331.84;6122841;23;20070;-76
2022/02/04 17:16:41;;;;;;;0.17;0.17;;;;;;;6.03;44.18;99336.25;6149215;23;20002;-77
2022/02/04 17:19:11;;;;;;;0.00;0.00;;;;;;;5.99;44.04;99335.13;6123089;23;20051;-76
2022/02/04 17:21:38;;;;;;;0.00;0.00;;;;;;;5.91;44.16;99329.13;6149796;23;20006;-76
2022/02/04 17:24:04;;;;;;;0.10;0.10;;;;;;;5.88;44.23;99334.09;6149474;23;20025;-77
2022/02/04 17:26:29;;;;;;;0.35;0.35;;;;;;;5.85;44.67;99332.72;6149915;23;20033;-76
2022/02/04 17:28:55;;;;;;;0.28;0.28;;;;;;;5.81;44.75;99336.91;6150608;23;20010;-77
2022/02/04 17:31:21;;;;;;;0.10;0.10;;;;;;;5.75;44.74;99329.91;6123852;23;20104;-75
2022/02/04 17:33:47;;;;;;;0.00;0.00;;;;;;;5.71;45.00;99332.22;6150508;23;20392;-79
2022/02/04 17:36:13;;;;;;;0.45;0.45;;;;;;;5.62;45.49;99323.00;6150691;23;20006;-77
2022/02/04 17:38:39;;;;;;;1.65;1.55;;;;;;;5.59;45.37;99329.59;6151125;23;20074;-78
2022/02/04 17:41:08;;;;;;;0.10;0.10;;;;;;;5.56;45.38;99324.75;6125582;23;20001;-78
2022/02/04 17:43:33;;;;;;;0.00;0.00;;;;;;;5.55;45.50;99323.13;6124411;23;20590;-78
2022/02/04 17:45:59;;;;;;;0.00;0.00;;;;;;;5.52;45.64;99325.47;6150520;23;20005;-79
2022/02/04 17:48:32;;;;;;;0.52;0.52;;;;;;;5.50;46.05;99319.59;6125982;23;20001;-78
2022/02/04 17:51:09;;;;;;;0.03;0.03;;;;;;;5.42;46.10;99313.63;6125193;23;20097;-78
2022/02/04 17:53:49;;;;;;;0.00;0.00;;;;;;;5.41;45.77;99321.81;6124514;23;20397;-78
2022/02/04 17:56:29;;;;;;;0.00;0.00;;;;;;;5.41;45.91;99319.97;6123861;23;20346;-79
2022/02/04 18:01:53;;;;;;;0.00;0.00;;;;;;;5.36;46.31;99313.75;6156456;23;20067;-79
2022/02/04 18:07:24;;;;;;;0.00;0.00;;;;;;;5.33;46.47;99312.38;6150646;23;20106;-79
2022/02/04 18:09:54;;;;;;;0.15;0.15;;;;;;;5.32;46.38;99305.44;6151349;23;20512;-79
2022/02/04 18:12:31;;;;;;;0.00;0.00;;;;;;;5.31;46.58;99306.50;6150283;23;19997;-78
2022/02/04 18:14:57;;;;;;;0.00;0.00;;;;;;;5.29;46.49;99297.97;6124207;23;20013;-78
2022/02/04 18:17:22;;;;;;;0.00;0.00;;;;;;;5.29;46.38;99296.13;6124004;23;20469;-78
2022/02/04 18:19:48;;;;;;;0.45;0.45;;;;;;;5.27;46.57;99292.09;6124513;23;20031;-78
2022/02/04 18:22:14;;;;;;;0.00;0.00;;;;;;;5.27;46.47;99295.56;6126611;23;20040;-78
2022/02/04 18:24:39;;;;;;;0.30;0.30;;;;;;;5.24;46.80;99295.22;6127115;22;20063;-78
2022/02/04 18:27:08;;;;;;;0.00;0.00;;;;;;;5.21;47.30;99296.50;6125928;23;20013;-77
2022/02/04 18:29:35;;;;;;;0.00;0.00;;;;;;;5.17;47.76;99291.91;6126137;23;20013;-77
2022/02/04 18:32:04;;;;;;;0.35;0.35;;;;;;;5.13;47.68;99294.22;6125922;23;20017;-78
2022/02/04 18:34:29;;;;;;;0.00;0.00;;;;;;;5.13;47.64;99287.03;6123188;23;20017;-79
2022/02/04 18:36:58;;;;;;;0.20;0.20;;;;;;;5.12;47.85;99290.72;6122936;23;19997;-79
2022/02/04 18:44:25;;;;;;;0.00;0.00;;;;;;;5.08;48.01;99284.31;6148584;23;20006;-78
2022/02/04 18:52:22;;;;;;;0.00;0.00;;;;;;;5.06;48.26;99277.63;6149193;23;20006;-77
2022/02/04 18:54:53;;;;;;;0.10;0.10;;;;;;;5.03;48.50;99286.03;6148406;23;20039;-77
2022/02/04 18:57:23;;;;;;;0.00;0.00;;;;;;;5.00;49.40;99275.91;6122286;23;20005;-78
2022/02/04 18:59:58;;;;;;;0.00;0.00;;;;;;;5.01;48.98;99282.81;6148615;23;20012;-79
2022/02/04 19:02:26;;;;;;;0.00;0.00;;;;;;;4.98;49.27;99289.41;6122984;23;20009;-79
2022/02/04 19:04:59;;;;;;;0.20;0.20;;;;;;;4.93;49.57;99278.66;6123557;23;20012;-79
2022/02/04 19:07:38;;;;;;;0.52;0.52;;;;;;;4.89;50.10;99278.31;6122788;23;20056;-79
2022/02/04 19:10:04;;;;;;;0.00;0.00;;;;;;;4.86;49.88;99283.28;6122662;23;20013;-79
2022/02/04 19:12:37;;;;;;;0.00;0.00;;;;;;;4.84;50.35;99274.78;6123233;22;20006;-79
2022/02/04 19:15:23;;;;;;;0.30;0.30;;;;;;;4.78;50.44;99272.00;6122839;23;20438;-79
2022/02/04 19:17:54;;;;;;;0.00;0.00;;;;;;;4.75;50.31;99276.97;6123112;23;20401;-79
2022/02/04 19:20:44;;;;;;;0.00;0.00;;;;;;;4.73;50.60;99277.19;6123013;23;20013;-79
2022/02/04 19:23:09;;;;;;;0.00;0.00;;;;;;;4.69;50.66;99277.88;6147991;23;20671;-78
2022/02/04 19:25:38;;;;;;;0.00;0.00;;;;;;;4.66;51.25;99287.09;6123186;23;20008;-78
2022/02/04 19:28:10;;;;;;;1.05;1.00;;;;;;;4.58;51.54;99290.13;6139078;22;20031;-81
2022/02/04 19:30:46;;;;;;;0.00;0.00;;;;;;;4.57;51.67;99291.16;6282639;22;20047;-79
2022/02/04 19:33:22;;;;;;;0.00;0.00;;;;;;;4.53;51.73;99293.44;6248968;22;20004;-80
2022/02/04 19:41:56;;;;;;;0.00;0.00;;;;;;;4.41;52.09;99308.53;6147100;22;20091;-78
2022/02/04 19:44:21;;;;;;;0.00;0.00;;;;;;;4.37;52.73;99302.06;6122334;23;20144;-77
2022/02/04 19:46:52;;;;;;;0.00;0.00;;;;;;;4.33;52.45;99309.66;6122752;23;20024;-79
2022/02/04 19:49:48;;;;;;;0.00;0.00;;;;;;;4.32;53.20;99303.56;6149312;23;20099;-78
2022/02/04 20:06:36;;;;;;;0.00;0.00;;;;;;;4.20;53.15;99289.50;6152417;23;20009;-79
2022/02/04 20:25:22;;;;;;;0.00;0.00;;;;;;;3.77;55.07;99279.94;6120639;23;20379;-78
2022/02/04 20:27:30;;;;;;;0.00;0.00;;;;;;;3.76;55.18;99284.44;6105125;23;20000;-78
2022/02/04 20:29:57;;;;;;;0.00;0.00;;;;;;;3.73;55.27;99279.59;6045595;23;20007;-80
2022/02/04 20:32:23;;;;;;;0.00;0.00;;;;;;;3.67;55.14;99276.03;6034487;23;20399;-77
2022/02/04 20:34:49;;;;;;;0.00;0.00;;;;;;;3.72;55.76;99279.81;6034239;23;20014;-78
2022/02/04 20:37:14;;;;;;;0.00;0.00;;;;;;;3.68;55.42;99272.31;6033820;23;20011;-77
2022/02/04 20:39:50;;;;;;;0.00;0.00;;;;;;;3.65;55.93;99272.78;6115698;23;20020;-78
2022/02/04 20:42:20;;;;;;;0.00;0.00;;;;;;;3.65;55.81;99275.44;6129346;23;20028;-78
2022/02/04 20:45:01;;;;;;;0.00;0.00;;;;;;;3.64;55.87;99281.75;6147390;23;20002;-80
2022/02/04 20:55:19;;;;;;;0.00;0.00;;;;;;;3.59;56.17;99268.41;6175432;23;20012;-82
2022/02/04 20:57:48;;;;;;;0.00;0.00;;;;;;;3.56;56.45;99274.13;6153463;23;20018;-78
2022/02/04 21:00:26;;;;;;;0.00;0.00;;;;;;;3.55;56.59;99271.72;6148431;23;20123;-78
2022/02/04 21:02:56;;;;;;;0.00;0.00;;;;;;;3.52;56.63;99265.03;6148399;23;20419;-78
2022/02/04 21:05:26;;;;;;;0.10;0.10;;;;;;;3.49;56.65;99263.66;6149247;23;20431;-78
2022/02/04 21:16:00;;;;;;;0.00;0.00;;;;;;;3.46;57.99;99264.09;6150860;23;20013;-78
2022/02/04 21:19:01;;;;;;;0.60;0.60;;;;;;;3.45;58.26;99253.75;6148626;23;20005;-81
2022/02/04 21:21:44;;;;;;;0.00;0.00;;;;;;;3.40;58.13;99257.03;6164253;23;20004;-81
2022/02/04 21:44:27;;;;;;;0.00;0.00;;;;;;;3.07;59.58;99258.25;6134855;23;20080;-78